sensor_id;sensor_type;location;lat;lon;timestamp;temperature;humidity
29917;DHT22;16786;49.466;11.068;2022-12-29T00:02:17;7.50;99.90
29917;DHT22;16786;49.466;11.068;2022-12-29T00:04:45;7.60;99.90
29917;DHT22;16786;49.466;11.068;2022-12-29T00:07:12;7.60;99.90
29917;DHT22;16786;49.466;11.068;2022-12-29T00:09:40;7.60;99.90
29917;DHT22;16786;49.466;11.068;2022-12-29T00:12:07;7.50;99.90
29917;DHT22;16786;49.466;11.068;2022-12-29T00:14:35;7.50;99.90
29917;DHT22;16786;49.466;11.068;2022-12-29T00:17:20;7.60;99.90
29917;DHT22;16786;49.466;11.068;2022-12-29T00:19:48;7.50;99.90
29917;DHT22;16786;49.466;11.068;2022-12-29T00:22:33;7.50;99.90
29917;DHT22;16786;49.466;11.068;2022-12-29T00:25:19;7.50;99.90
29917;DHT22;16786;49.466;11.068;2022-12-29T00:28:08;7.60;99.90
29917;DHT22;16786;49.466;11.068;2022-12-29T00:30:59;7.50;99.90
29917;DHT22;16786;49.466;11.068;2022-12-29T00:33:45;7.60;99.90
29917;DHT22;16786;49.466;11.068;2022-12-29T00:36:34;7.60;99.90
29917;DHT22;16786;49.466;11.068;2022-12-29T00:39:11;7.60;99.90
29917;DHT22;16786;49.466;11.068;2022-12-29T00:42:06;7.70;99.90
29917;DHT22;16786;49.466;11.068;2022-12-29T00:45:06;7.70;99.90
29917;DHT22;16786;49.466;11.068;2022-12-29T00:47:33;7.70;99.90
29917;DHT22;16786;49.466;11.068;2022-12-29T00:50:00;7.70;99.90
29917;DHT22;16786;49.466;11.068;2022-12-29T00:52:29;7.80;99.90
29917;DHT22;16786;49.466;11.068;2022-12-29T00:54:56;7.80;99.90
29917;DHT22;16786;49.466;11.068;2022-12-29T00:57:23;7.80;99.90
29917;DHT22;16786;49.466;11.068;2022-12-29T00:59:51;7.80;99.90
29917;DHT22;16786;49.466;11.068;2022-12-29T01:02:19;7.90;99.90
29917;DHT22;16786;49.466;11.068;2022-12-29T01:04:46;7.90;99.90
29917;DHT22;16786;49.466;11.068;2022-12-29T01:07:15;7.80;99.90
29917;DHT22;16786;49.466;11.068;2022-12-29T01:09:45;7.80;99.90
29917;DHT22;16786;49.466;11.068;2022-12-29T01:12:33;7.90;99.90
29917;DHT22;16786;49.466;11.068;2022-12-29T01:15:13;7.90;99.90
29917;DHT22;16786;49.466;11.068;2022-12-29T01:17:42;8.00;99.90
29917;DHT22;16786;49.466;11.068;2022-12-29T01:20:11;7.90;99.90
29917;DHT22;16786;49.466;11.068;2022-12-29T01:22:39;8.00;99.90
29917;DHT22;16786;49.466;11.068;2022-12-29T01:25:06;8.00;99.90
29917;DHT22;16786;49.466;11.068;2022-12-29T01:27:34;8.00;99.90
29917;DHT22;16786;49.466;11.068;2022-12-29T01:30:01;8.00;99.90
29917;DHT22;16786;49.466;11.068;2022-12-29T01:32:31;8.00;99.90
29917;DHT22;16786;49.466;11.068;2022-12-29T01:34:58;8.10;99.90
29917;DHT22;16786;49.466;11.068;2022-12-29T01:37:25;8.10;99.90
29917;DHT22;16786;49.466;11.068;2022-12-29T01:39:53;8.00;99.90
29917;DHT22;16786;49.466;11.068;2022-12-29T01:42:24;8.10;99.90
29917;DHT22;16786;49.466;11.068;2022-12-29T01:45:01;8.00;99.90
29917;DHT22;16786;49.466;11.068;2022-12-29T01:47:30;8.00;99.90
29917;DHT22;16786;49.466;11.068;2022-12-29T01:50:20;8.00;99.90
29917;DHT22;16786;49.466;11.068;2022-12-29T01:52:59;8.10;99.90
29917;DHT22;16786;49.466;11.068;2022-12-29T01:55:29;8.20;99.90
29917;DHT22;16786;49.466;11.068;2022-12-29T01:58:01;8.10;99.90
29917;DHT22;16786;49.466;11.068;2022-12-29T02:00:30;8.10;99.90
29917;DHT22;16786;49.466;11.068;2022-12-29T02:02:57;8.10;99.90
29917;DHT22;16786;49.466;11.068;2022-12-29T02:08:04;8.10;99.90
29917;DHT22;16786;49.466;11.068;2022-12-29T02:10:35;8.10;99.90
29917;DHT22;16786;49.466;11.068;2022-12-29T02:13:03;8.20;99.90
29917;DHT22;16786;49.466;11.068;2022-12-29T02:15:55;8.30;99.90
29917;DHT22;16786;49.466;11.068;2022-12-29T02:18:45;8.20;99.90
29917;DHT22;16786;49.466;11.068;2022-12-29T02:21:43;8.30;99.90
29917;DHT22;16786;49.466;11.068;2022-12-29T02:43:54;8.30;99.90
29917;DHT22;16786;49.466;11.068;2022-12-29T02:46:33;8.30;99.90
29917;DHT22;16786;49.466;11.068;2022-12-29T02:49:06;8.30;99.90
29917;DHT22;16786;49.466;11.068;2022-12-29T02:51:57;8.30;99.90
29917;DHT22;16786;49.466;11.068;2022-12-29T02:54:27;8.40;99.90
29917;DHT22;16786;49.466;11.068;2022-12-29T02:57:33;8.30;99.90
29917;DHT22;16786;49.466;11.068;2022-12-29T03:00:06;8.30;99.90
29917;DHT22;16786;49.466;11.068;2022-12-29T03:13:13;8.20;99.90
29917;DHT22;16786;49.466;11.068;2022-12-29T03:16:11;8.30;99.90
29917;DHT22;16786;49.466;11.068;2022-12-29T03:21:17;8.30;99.90
29917;DHT22;16786;49.466;11.068;2022-12-29T03:23:49;8.30;99.90
29917;DHT22;16786;49.466;11.068;2022-12-29T03:26:19;8.30;99.90
29917;DHT22;16786;49.466;11.068;2022-12-29T03:28:53;8.30;99.90
29917;DHT22;16786;49.466;11.068;2022-12-29T03:31:25;8.40;99.90
29917;DHT22;16786;49.466;11.068;2022-12-29T03:33:55;8.30;99.90
29917;DHT22;16786;49.466;11.068;2022-12-29T03:36:30;8.30;99.90
29917;DHT22;16786;49.466;11.068;2022-12-29T03:39:04;8.40;99.90
29917;DHT22;16786;49.466;11.068;2022-12-29T03:41:34;8.30;99.90
29917;DHT22;16786;49.466;11.068;2022-12-29T03:44:06;8.30;99.90
29917;DHT22;16786;49.466;11.068;2022-12-29T03:46:34;8.30;99.90
29917;DHT22;16786;49.466;11.068;2022-12-29T03:49:02;8.30;99.90
29917;DHT22;16786;49.466;11.068;2022-12-29T03:51:29;8.30;99.90
29917;DHT22;16786;49.466;11.068;2022-12-29T03:53:57;8.30;99.90
29917;DHT22;16786;49.466;11.068;2022-12-29T03:56:24;8.30;99.90
29917;DHT22;16786;49.466;11.068;2022-12-29T03:58:52;8.30;99.90
29917;DHT22;16786;49.466;11.068;2022-12-29T04:01:29;8.30;99.90
29917;DHT22;16786;49.466;11.068;2022-12-29T04:03:57;8.30;99.90
29917;DHT22;16786;49.466;11.068;2022-12-29T04:06:25;8.30;99.90
29917;DHT22;16786;49.466;11.068;2022-12-29T04:08:58;8.30;99.90
29917;DHT22;16786;49.466;11.068;2022-12-29T04:11:28;8.30;99.90
29917;DHT22;16786;49.466;11.068;2022-12-29T04:14:00;8.40;99.90
29917;DHT22;16786;49.466;11.068;2022-12-29T04:16:30;8.40;99.90
29917;DHT22;16786;49.466;11.068;2022-12-29T04:18:57;8.40;99.90
29917;DHT22;16786;49.466;11.068;2022-12-29T04:21:24;8.40;99.90
29917;DHT22;16786;49.466;11.068;2022-12-29T04:23:52;8.30;99.90
29917;DHT22;16786;49.466;11.068;2022-12-29T04:26:19;8.30;99.90
29917;DHT22;16786;49.466;11.068;2022-12-29T04:29:07;8.20;99.90
29917;DHT22;16786;49.466;11.068;2022-12-29T04:32:04;8.20;99.90
29917;DHT22;16786;49.466;11.068;2022-12-29T04:34:34;8.20;99.90
29917;DHT22;16786;49.466;11.068;2022-12-29T04:37:01;8.30;99.90
29917;DHT22;16786;49.466;11.068;2022-12-29T04:39:28;8.30;99.90
29917;DHT22;16786;49.466;11.068;2022-12-29T04:41:56;8.30;99.90
29917;DHT22;16786;49.466;11.068;2022-12-29T04:44:24;8.30;99.90
29917;DHT22;16786;49.466;11.068;2022-12-29T04:47:04;8.30;99.90
29917;DHT22;16786;49.466;11.068;2022-12-29T04:49:54;8.30;99.90
29917;DHT22;16786;49.466;11.068;2022-12-29T04:52:41;8.30;99.90
29917;DHT22;16786;49.466;11.068;2022-12-29T04:55:10;8.40;99.90
29917;DHT22;16786;49.466;11.068;2022-12-29T04:57:39;8.40;99.90
29917;DHT22;16786;49.466;11.068;2022-12-29T05:00:08;8.30;99.90
29917;DHT22;16786;49.466;11.068;2022-12-29T05:02:37;8.30;99.90
29917;DHT22;16786;49.466;11.068;2022-12-29T05:05:05;8.30;99.90
29917;DHT22;16786;49.466;11.068;2022-12-29T05:07:38;8.30;99.90
29917;DHT22;16786;49.466;11.068;2022-12-29T05:10:06;8.20;99.90
29917;DHT22;16786;49.466;11.068;2022-12-29T05:12:35;8.10;99.90
29917;DHT22;16786;49.466;11.068;2022-12-29T05:15:04;8.00;99.90
29917;DHT22;16786;49.466;11.068;2022-12-29T05:17:32;8.00;99.90
29917;DHT22;16786;49.466;11.068;2022-12-29T05:19:59;8.00;99.90
29917;DHT22;16786;49.466;11.068;2022-12-29T05:22:27;8.00;99.90
29917;DHT22;16786;49.466;11.068;2022-12-29T05:24:55;8.10;99.90
29917;DHT22;16786;49.466;11.068;2022-12-29T05:27:23;8.20;99.90
29917;DHT22;16786;49.466;11.068;2022-12-29T05:30:19;8.20;99.90
29917;DHT22;16786;49.466;11.068;2022-12-29T05:32:47;8.20;99.90
29917;DHT22;16786;49.466;11.068;2022-12-29T05:35:14;8.20;99.90
29917;DHT22;16786;49.466;11.068;2022-12-29T05:37:41;8.30;99.90
29917;DHT22;16786;49.466;11.068;2022-12-29T05:40:10;8.30;99.90
29917;DHT22;16786;49.466;11.068;2022-12-29T05:42:37;8.30;99.90
29917;DHT22;16786;49.466;11.068;2022-12-29T05:45:15;8.10;99.90
29917;DHT22;16786;49.466;11.068;2022-12-29T05:48:05;8.00;99.90
29917;DHT22;16786;49.466;11.068;2022-12-29T05:50:56;7.90;99.90
29917;DHT22;16786;49.466;11.068;2022-12-29T05:53:32;7.80;99.90
29917;DHT22;16786;49.466;11.068;2022-12-29T05:56:00;7.80;99.90
29917;DHT22;16786;49.466;11.068;2022-12-29T05:58:27;7.70;99.90
29917;DHT22;16786;49.466;11.068;2022-12-29T06:00:55;7.70;99.90
29917;DHT22;16786;49.466;11.068;2022-12-29T06:03:22;7.60;99.90
29917;DHT22;16786;49.466;11.068;2022-12-29T06:05:51;7.60;99.90
29917;DHT22;16786;49.466;11.068;2022-12-29T06:08:18;7.60;99.90
29917;DHT22;16786;49.466;11.068;2022-12-29T06:10:47;7.60;99.90
29917;DHT22;16786;49.466;11.068;2022-12-29T06:13:15;7.70;99.90
29917;DHT22;16786;49.466;11.068;2022-12-29T06:15:44;7.70;99.90
29917;DHT22;16786;49.466;11.068;2022-12-29T06:18:12;7.60;99.90
29917;DHT22;16786;49.466;11.068;2022-12-29T06:20:45;7.60;99.90
29917;DHT22;16786;49.466;11.068;2022-12-29T06:23:13;7.50;99.90
29917;DHT22;16786;49.466;11.068;2022-12-29T06:25:40;7.40;99.90
29917;DHT22;16786;49.466;11.068;2022-12-29T06:28:07;7.30;99.90
29917;DHT22;16786;49.466;11.068;2022-12-29T06:30:36;7.40;99.90
29917;DHT22;16786;49.466;11.068;2022-12-29T06:33:04;7.50;99.90
29917;DHT22;16786;49.466;11.068;2022-12-29T06:35:31;7.50;99.90
29917;DHT22;16786;49.466;11.068;2022-12-29T06:37:59;7.50;99.90
29917;DHT22;16786;49.466;11.068;2022-12-29T06:40:26;7.50;99.90
29917;DHT22;16786;49.466;11.068;2022-12-29T06:43:02;7.50;99.90
29917;DHT22;16786;49.466;11.068;2022-12-29T06:45:48;7.60;99.90
29917;DHT22;16786;49.466;11.068;2022-12-29T06:48:16;7.60;99.90
29917;DHT22;16786;49.466;11.068;2022-12-29T06:50:43;7.60;99.90
29917;DHT22;16786;49.466;11.068;2022-12-29T06:53:10;7.70;99.90
29917;DHT22;16786;49.466;11.068;2022-12-29T06:55:38;7.60;99.90
29917;DHT22;16786;49.466;11.068;2022-12-29T06:58:05;7.60;99.90
29917;DHT22;16786;49.466;11.068;2022-12-29T07:00:33;7.50;99.90
29917;DHT22;16786;49.466;11.068;2022-12-29T07:03:00;7.50;99.90
29917;DHT22;16786;49.466;11.068;2022-12-29T07:05:28;7.60;99.90
29917;DHT22;16786;49.466;11.068;2022-12-29T07:07:58;7.60;99.90
29917;DHT22;16786;49.466;11.068;2022-12-29T07:10:26;7.60;99.90
29917;DHT22;16786;49.466;11.068;2022-12-29T07:12:53;7.60;99.90
29917;DHT22;16786;49.466;11.068;2022-12-29T07:15:20;7.60;99.90
29917;DHT22;16786;49.466;11.068;2022-12-29T07:17:48;7.60;99.90
29917;DHT22;16786;49.466;11.068;2022-12-29T07:20:17;7.70;99.90
29917;DHT22;16786;49.466;11.068;2022-12-29T07:22:52;7.80;99.90
29917;DHT22;16786;49.466;11.068;2022-12-29T07:25:19;7.90;99.90
29917;DHT22;16786;49.466;11.068;2022-12-29T07:27:47;7.80;99.90
29917;DHT22;16786;49.466;11.068;2022-12-29T07:30:16;7.80;99.90
29917;DHT22;16786;49.466;11.068;2022-12-29T07:32:43;7.90;99.90
29917;DHT22;16786;49.466;11.068;2022-12-29T07:35:10;7.90;99.90
29917;DHT22;16786;49.466;11.068;2022-12-29T07:37:38;8.00;99.90
29917;DHT22;16786;49.466;11.068;2022-12-29T07:40:06;8.00;99.90
29917;DHT22;16786;49.466;11.068;2022-12-29T07:42:33;8.10;99.90
29917;DHT22;16786;49.466;11.068;2022-12-29T07:45:00;8.10;99.90
29917;DHT22;16786;49.466;11.068;2022-12-29T07:47:54;8.10;99.90
29917;DHT22;16786;49.466;11.068;2022-12-29T07:50:21;8.10;99.90
29917;DHT22;16786;49.466;11.068;2022-12-29T07:52:49;8.20;99.90
29917;DHT22;16786;49.466;11.068;2022-12-29T07:55:17;8.20;99.90
29917;DHT22;16786;49.466;11.068;2022-12-29T07:57:44;8.30;99.90
29917;DHT22;16786;49.466;11.068;2022-12-29T08:00:12;8.30;99.90
29917;DHT22;16786;49.466;11.068;2022-12-29T08:02:39;8.30;99.90
29917;DHT22;16786;49.466;11.068;2022-12-29T08:05:07;8.30;99.90
29917;DHT22;16786;49.466;11.068;2022-12-29T08:07:34;8.40;99.90
29917;DHT22;16786;49.466;11.068;2022-12-29T08:10:02;8.40;99.90
29917;DHT22;16786;49.466;11.068;2022-12-29T08:12:30;8.50;99.90
29917;DHT22;16786;49.466;11.068;2022-12-29T08:14:57;8.50;99.90
29917;DHT22;16786;49.466;11.068;2022-12-29T08:17:25;8.50;99.90
29917;DHT22;16786;49.466;11.068;2022-12-29T08:19:52;8.70;99.90
29917;DHT22;16786;49.466;11.068;2022-12-29T08:22:20;8.70;99.90
29917;DHT22;16786;49.466;11.068;2022-12-29T08:24:47;8.80;99.90
29917;DHT22;16786;49.466;11.068;2022-12-29T08:27:15;8.90;99.90
29917;DHT22;16786;49.466;11.068;2022-12-29T08:29:47;9.00;99.90
29917;DHT22;16786;49.466;11.068;2022-12-29T08:32:15;9.10;99.90
29917;DHT22;16786;49.466;11.068;2022-12-29T08:34:42;9.20;99.90
29917;DHT22;16786;49.466;11.068;2022-12-29T08:37:10;9.20;99.90
29917;DHT22;16786;49.466;11.068;2022-12-29T08:39:37;9.30;99.90
29917;DHT22;16786;49.466;11.068;2022-12-29T08:42:04;9.30;99.90
29917;DHT22;16786;49.466;11.068;2022-12-29T08:44:32;9.40;99.90
29917;DHT22;16786;49.466;11.068;2022-12-29T08:47:00;9.40;99.90
29917;DHT22;16786;49.466;11.068;2022-12-29T08:49:27;9.50;99.90
29917;DHT22;16786;49.466;11.068;2022-12-29T08:51:55;9.60;99.90
29917;DHT22;16786;49.466;11.068;2022-12-29T08:54:22;9.60;99.90
29917;DHT22;16786;49.466;11.068;2022-12-29T08:56:50;9.70;99.90
29917;DHT22;16786;49.466;11.068;2022-12-29T08:59:18;9.70;99.90
29917;DHT22;16786;49.466;11.068;2022-12-29T09:01:47;9.70;99.90
29917;DHT22;16786;49.466;11.068;2022-12-29T09:04:14;9.80;99.90
29917;DHT22;16786;49.466;11.068;2022-12-29T09:06:44;9.80;99.90
29917;DHT22;16786;49.466;11.068;2022-12-29T09:09:12;9.90;99.90
29917;DHT22;16786;49.466;11.068;2022-12-29T09:11:39;9.90;99.90
29917;DHT22;16786;49.466;11.068;2022-12-29T09:14:07;9.90;99.90
29917;DHT22;16786;49.466;11.068;2022-12-29T09:16:35;10.10;99.90
29917;DHT22;16786;49.466;11.068;2022-12-29T09:19:03;10.20;99.90
29917;DHT22;16786;49.466;11.068;2022-12-29T09:21:31;10.30;99.90
29917;DHT22;16786;49.466;11.068;2022-12-29T09:23:58;10.40;99.90
29917;DHT22;16786;49.466;11.068;2022-12-29T09:26:26;10.50;99.90
29917;DHT22;16786;49.466;11.068;2022-12-29T09:28:53;10.60;99.90
29917;DHT22;16786;49.466;11.068;2022-12-29T09:31:20;10.60;99.90
29917;DHT22;16786;49.466;11.068;2022-12-29T09:33:49;10.60;99.90
29917;DHT22;16786;49.466;11.068;2022-12-29T09:36:16;10.70;99.90
29917;DHT22;16786;49.466;11.068;2022-12-29T09:38:43;10.80;99.90
29917;DHT22;16786;49.466;11.068;2022-12-29T09:41:18;10.90;99.90
29917;DHT22;16786;49.466;11.068;2022-12-29T09:46:46;10.90;99.90
29917;DHT22;16786;49.466;11.068;2022-12-29T09:51:53;11.00;99.90
29917;DHT22;16786;49.466;11.068;2022-12-29T09:54:36;11.00;99.90
29917;DHT22;16786;49.466;11.068;2022-12-29T09:57:28;11.00;99.90
29917;DHT22;16786;49.466;11.068;2022-12-29T10:00:23;11.20;99.90
29917;DHT22;16786;49.466;11.068;2022-12-29T10:02:52;11.10;99.90
29917;DHT22;16786;49.466;11.068;2022-12-29T10:05:39;11.10;99.90
29917;DHT22;16786;49.466;11.068;2022-12-29T10:08:26;11.10;99.90
29917;DHT22;16786;49.466;11.068;2022-12-29T10:21:38;11.00;99.90
29917;DHT22;16786;49.466;11.068;2022-12-29T10:24:11;11.00;99.90
29917;DHT22;16786;49.466;11.068;2022-12-29T10:26:43;11.00;99.90
29917;DHT22;16786;49.466;11.068;2022-12-29T10:29:28;11.00;99.90
29917;DHT22;16786;49.466;11.068;2022-12-29T10:32:00;11.00;99.90
29917;DHT22;16786;49.466;11.068;2022-12-29T10:34:37;11.00;99.90
29917;DHT22;16786;49.466;11.068;2022-12-29T10:37:12;11.20;99.90
29917;DHT22;16786;49.466;11.068;2022-12-29T10:39:49;11.20;99.90
29917;DHT22;16786;49.466;11.068;2022-12-29T10:42:40;11.30;99.90
29917;DHT22;16786;49.466;11.068;2022-12-29T10:45:16;11.40;99.90
29917;DHT22;16786;49.466;11.068;2022-12-29T10:47:56;11.50;99.90
29917;DHT22;16786;49.466;11.068;2022-12-29T10:50:25;11.60;99.90
29917;DHT22;16786;49.466;11.068;2022-12-29T10:52:54;11.60;99.90
29917;DHT22;16786;49.466;11.068;2022-12-29T10:55:28;11.60;99.90
29917;DHT22;16786;49.466;11.068;2022-12-29T10:58:02;11.70;99.90
29917;DHT22;16786;49.466;11.068;2022-12-29T11:00:32;11.80;99.90
29917;DHT22;16786;49.466;11.068;2022-12-29T11:06:14;11.90;99.90
29917;DHT22;16786;49.466;11.068;2022-12-29T11:08:54;11.90;99.90
29917;DHT22;16786;49.466;11.068;2022-12-29T11:11:25;12.00;99.90
29917;DHT22;16786;49.466;11.068;2022-12-29T11:14:01;12.00;99.90
29917;DHT22;16786;49.466;11.068;2022-12-29T11:16:32;12.10;99.90
29917;DHT22;16786;49.466;11.068;2022-12-29T11:19:01;12.20;99.90
29917;DHT22;16786;49.466;11.068;2022-12-29T11:21:34;12.30;99.90
29917;DHT22;16786;49.466;11.068;2022-12-29T11:24:23;12.40;99.90
29917;DHT22;16786;49.466;11.068;2022-12-29T11:26:54;12.60;99.90
29917;DHT22;16786;49.466;11.068;2022-12-29T11:29:38;12.80;99.90
29917;DHT22;16786;49.466;11.068;2022-12-29T11:32:22;12.90;99.90
29917;DHT22;16786;49.466;11.068;2022-12-29T11:34:58;12.90;99.90
29917;DHT22;16786;49.466;11.068;2022-12-29T11:37:30;12.80;99.90
29917;DHT22;16786;49.466;11.068;2022-12-29T11:40:02;12.60;99.90
29917;DHT22;16786;49.466;11.068;2022-12-29T11:42:57;12.60;99.90
29917;DHT22;16786;49.466;11.068;2022-12-29T11:45:31;12.70;99.90
29917;DHT22;16786;49.466;11.068;2022-12-29T11:48:09;12.90;99.90
29917;DHT22;16786;49.466;11.068;2022-12-29T11:50:41;13.10;99.90
29917;DHT22;16786;49.466;11.068;2022-12-29T11:53:34;13.60;99.90
29917;DHT22;16786;49.466;11.068;2022-12-29T11:56:08;14.00;99.90
29917;DHT22;16786;49.466;11.068;2022-12-29T11:58:37;14.20;99.90
29917;DHT22;16786;49.466;11.068;2022-12-29T12:01:33;13.90;99.90
29917;DHT22;16786;49.466;11.068;2022-12-29T12:04:14;13.90;99.90
29917;DHT22;16786;49.466;11.068;2022-12-29T12:06:49;13.70;99.90
29917;DHT22;16786;49.466;11.068;2022-12-29T12:09:34;13.70;99.90
29917;DHT22;16786;49.466;11.068;2022-12-29T12:12:05;13.80;99.90
29917;DHT22;16786;49.466;11.068;2022-12-29T12:14:43;14.00;99.90
29917;DHT22;16786;49.466;11.068;2022-12-29T12:20:48;14.40;99.90
29917;DHT22;16786;49.466;11.068;2022-12-29T12:26:12;14.40;99.90
29917;DHT22;16786;49.466;11.068;2022-12-29T12:29:04;14.20;99.90
29917;DHT22;16786;49.466;11.068;2022-12-29T12:31:59;13.90;99.90
29917;DHT22;16786;49.466;11.068;2022-12-29T12:34:37;13.60;99.90
29917;DHT22;16786;49.466;11.068;2022-12-29T12:50:57;12.90;99.90
29917;DHT22;16786;49.466;11.068;2022-12-29T13:10:15;12.40;99.90
29917;DHT22;16786;49.466;11.068;2022-12-29T13:13:13;12.40;99.90
29917;DHT22;16786;49.466;11.068;2022-12-29T13:18:48;12.30;99.90
29917;DHT22;16786;49.466;11.068;2022-12-29T13:27:43;12.10;99.90
29917;DHT22;16786;49.466;11.068;2022-12-29T13:30:17;12.10;99.90
29917;DHT22;16786;49.466;11.068;2022-12-29T13:32:53;12.00;99.90
29917;DHT22;16786;49.466;11.068;2022-12-29T13:40:54;11.80;99.90
29917;DHT22;16786;49.466;11.068;2022-12-29T13:43:23;11.90;99.90
29917;DHT22;16786;49.466;11.068;2022-12-29T13:46:04;12.00;99.90
29917;DHT22;16786;49.466;11.068;2022-12-29T13:48:39;12.10;99.90
29917;DHT22;16786;49.466;11.068;2022-12-29T13:51:08;12.20;99.90
29917;DHT22;16786;49.466;11.068;2022-12-29T13:56:56;12.20;99.90
29917;DHT22;16786;49.466;11.068;2022-12-29T14:00:11;12.10;99.90
29917;DHT22;16786;49.466;11.068;2022-12-29T14:07:46;11.90;99.90
29917;DHT22;16786;49.466;11.068;2022-12-29T14:13:16;11.80;99.90
29917;DHT22;16786;49.466;11.068;2022-12-29T14:15:50;11.70;99.90
29917;DHT22;16786;49.466;11.068;2022-12-29T14:18:25;11.70;99.90
29917;DHT22;16786;49.466;11.068;2022-12-29T14:21:17;11.60;99.90
29917;DHT22;16786;49.466;11.068;2022-12-29T14:23:47;11.60;99.90
29917;DHT22;16786;49.466;11.068;2022-12-29T14:29:41;11.60;99.90
29917;DHT22;16786;49.466;11.068;2022-12-29T14:34:58;11.50;99.90
29917;DHT22;16786;49.466;11.068;2022-12-29T14:37:26;11.50;99.90
29917;DHT22;16786;49.466;11.068;2022-12-29T14:40:16;11.50;99.90
29917;DHT22;16786;49.466;11.068;2022-12-29T14:42:48;11.40;99.90
29917;DHT22;16786;49.466;11.068;2022-12-29T14:47:45;11.40;99.90
29917;DHT22;16786;49.466;11.068;2022-12-29T14:50:16;11.40;99.90
29917;DHT22;16786;49.466;11.068;2022-12-29T14:52:56;11.30;99.90
29917;DHT22;16786;49.466;11.068;2022-12-29T14:55:47;11.30;99.90
29917;DHT22;16786;49.466;11.068;2022-12-29T14:58:30;11.30;99.90
29917;DHT22;16786;49.466;11.068;2022-12-29T15:00:59;11.30;99.90
29917;DHT22;16786;49.466;11.068;2022-12-29T15:03:32;11.30;99.90
29917;DHT22;16786;49.466;11.068;2022-12-29T15:06:08;11.20;99.90
29917;DHT22;16786;49.466;11.068;2022-12-29T15:09:02;11.20;99.90
29917;DHT22;16786;49.466;11.068;2022-12-29T15:11:44;11.20;99.90
29917;DHT22;16786;49.466;11.068;2022-12-29T15:14:38;11.20;99.90
29917;DHT22;16786;49.466;11.068;2022-12-29T15:17:27;11.20;99.90
29917;DHT22;16786;49.466;11.068;2022-12-29T15:19:56;11.10;99.90
29917;DHT22;16786;49.466;11.068;2022-12-29T15:22:24;11.10;99.90
29917;DHT22;16786;49.466;11.068;2022-12-29T15:24:53;11.10;99.90
29917;DHT22;16786;49.466;11.068;2022-12-29T15:27:24;11.10;99.90
29917;DHT22;16786;49.466;11.068;2022-12-29T15:30:00;11.10;99.90
29917;DHT22;16786;49.466;11.068;2022-12-29T15:32:40;11.10;99.90
29917;DHT22;16786;49.466;11.068;2022-12-29T15:35:34;11.10;99.90
29917;DHT22;16786;49.466;11.068;2022-12-29T15:38:20;11.10;99.90
29917;DHT22;16786;49.466;11.068;2022-12-29T15:41:15;11.10;99.90
29917;DHT22;16786;49.466;11.068;2022-12-29T15:44:19;11.10;99.90
29917;DHT22;16786;49.466;11.068;2022-12-29T15:46:48;11.00;99.90
29917;DHT22;16786;49.466;11.068;2022-12-29T15:49:16;11.00;99.90
29917;DHT22;16786;49.466;11.068;2022-12-29T15:51:44;10.90;99.90
29917;DHT22;16786;49.466;11.068;2022-12-29T15:54:20;10.90;99.90
29917;DHT22;16786;49.466;11.068;2022-12-29T15:56:50;10.80;99.90
29917;DHT22;16786;49.466;11.068;2022-12-29T15:59:32;10.70;99.90
29917;DHT22;16786;49.466;11.068;2022-12-29T16:02:02;10.70;99.90
29917;DHT22;16786;49.466;11.068;2022-12-29T16:04:39;10.70;99.90
29917;DHT22;16786;49.466;11.068;2022-12-29T16:07:32;10.70;99.90
29917;DHT22;16786;49.466;11.068;2022-12-29T16:10:31;10.70;99.90
29917;DHT22;16786;49.466;11.068;2022-12-29T16:13:34;10.70;99.90
29917;DHT22;16786;49.466;11.068;2022-12-29T16:16:19;10.70;99.90
29917;DHT22;16786;49.466;11.068;2022-12-29T16:18:47;10.70;99.90
29917;DHT22;16786;49.466;11.068;2022-12-29T16:21:34;10.80;99.90
29917;DHT22;16786;49.466;11.068;2022-12-29T16:24:09;10.80;99.90
29917;DHT22;16786;49.466;11.068;2022-12-29T16:26:49;10.70;99.90
29917;DHT22;16786;49.466;11.068;2022-12-29T16:29:17;10.70;99.90
29917;DHT22;16786;49.466;11.068;2022-12-29T16:31:55;10.70;99.90
29917;DHT22;16786;49.466;11.068;2022-12-29T16:37:37;10.70;99.90
29917;DHT22;16786;49.466;11.068;2022-12-29T16:40:24;10.70;99.90
29917;DHT22;16786;49.466;11.068;2022-12-29T16:42:57;10.70;99.90
29917;DHT22;16786;49.466;11.068;2022-12-29T16:48:21;10.70;99.90
29917;DHT22;16786;49.466;11.068;2022-12-29T16:50:49;10.70;99.90
29917;DHT22;16786;49.466;11.068;2022-12-29T16:53:29;10.70;99.90
29917;DHT22;16786;49.466;11.068;2022-12-29T16:56:03;10.70;99.90
29917;DHT22;16786;49.466;11.068;2022-12-29T16:58:33;10.70;99.90
29917;DHT22;16786;49.466;11.068;2022-12-29T17:01:04;10.60;99.90
29917;DHT22;16786;49.466;11.068;2022-12-29T17:03:38;10.60;99.90
29917;DHT22;16786;49.466;11.068;2022-12-29T17:06:14;10.60;99.90
29917;DHT22;16786;49.466;11.068;2022-12-29T17:08:43;10.70;99.90
29917;DHT22;16786;49.466;11.068;2022-12-29T17:11:24;10.70;99.90
29917;DHT22;16786;49.466;11.068;2022-12-29T17:14:39;10.70;99.90
29917;DHT22;16786;49.466;11.068;2022-12-29T17:20:00;10.70;99.90
29917;DHT22;16786;49.466;11.068;2022-12-29T17:22:30;10.70;99.90
29917;DHT22;16786;49.466;11.068;2022-12-29T17:25:00;10.70;99.90
29917;DHT22;16786;49.466;11.068;2022-12-29T17:27:49;10.70;99.90
29917;DHT22;16786;49.466;11.068;2022-12-29T17:30:20;10.60;99.90
29917;DHT22;16786;49.466;11.068;2022-12-29T17:33:02;10.50;99.90
29917;DHT22;16786;49.466;11.068;2022-12-29T17:35:30;10.20;99.90
29917;DHT22;16786;49.466;11.068;2022-12-29T17:37:58;10.10;99.90
29917;DHT22;16786;49.466;11.068;2022-12-29T17:40:31;10.00;99.90
29917;DHT22;16786;49.466;11.068;2022-12-29T17:42:59;9.90;99.90
29917;DHT22;16786;49.466;11.068;2022-12-29T17:45:31;9.80;99.90
29917;DHT22;16786;49.466;11.068;2022-12-29T17:47:58;9.70;99.90
29917;DHT22;16786;49.466;11.068;2022-12-29T17:50:29;9.70;99.90
29917;DHT22;16786;49.466;11.068;2022-12-29T17:53:01;9.60;99.90
29917;DHT22;16786;49.466;11.068;2022-12-29T17:55:29;9.60;99.90
29917;DHT22;16786;49.466;11.068;2022-12-29T17:58:19;9.60;99.90
29917;DHT22;16786;49.466;11.068;2022-12-29T18:00:49;9.50;99.90
29917;DHT22;16786;49.466;11.068;2022-12-29T18:03:25;9.40;99.90
29917;DHT22;16786;49.466;11.068;2022-12-29T18:05:54;9.40;99.90
29917;DHT22;16786;49.466;11.068;2022-12-29T18:08:21;9.30;99.90
29917;DHT22;16786;49.466;11.068;2022-12-29T18:10:51;9.30;99.90
29917;DHT22;16786;49.466;11.068;2022-12-29T18:13:24;9.30;99.90
29917;DHT22;16786;49.466;11.068;2022-12-29T18:15:56;9.20;99.90
29917;DHT22;16786;49.466;11.068;2022-12-29T18:18:26;9.20;99.90
29917;DHT22;16786;49.466;11.068;2022-12-29T18:20:55;9.10;99.90
29917;DHT22;16786;49.466;11.068;2022-12-29T18:23:27;9.10;99.90